Time;durP1;ratioP1;P1;durP2;ratioP2;P2;SDS_P1;SDS_P2;PMS_P1;PMS_P2;Temp;Humidity;BMP_temperature;BMP_pressure;BME280_temperature;BME280_humidity;BME280_pressure;Samples;Min_cycle;Max_cycle;Signal;HPM_P1;HPM_P2
2023/02/02 00:01:51;;;;;;;25.60;5.78;;;4.90;99.90;;;;;;5070883;28;20543;-62
2023/02/02 00:04:28;;;;;;;28.67;4.53;;;4.80;99.90;;;;;;5071384;28;20040;-62
2023/02/02 00:06:56;;;;;;;23.20;4.00;;;4.80;99.90;;;;;;5071050;28;20068;-62
2023/02/02 00:09:22;;;;;;;30.45;4.97;;;4.90;99.90;;;;;;5070768;28;20048;-61
2023/02/02 00:11:49;;;;;;;31.67;3.88;;;4.90;99.90;;;;;;5071796;28;20039;-62
2023/02/02 00:14:16;;;;;;;24.15;4.15;;;4.90;99.90;;;;;;5074591;28;20025;-62
2023/02/02 00:16:45;;;;;;;26.02;4.80;;;4.80;99.90;;;;;;5074495;28;20059;-62
2023/02/02 00:19:14;;;;;;;17.52;4.03;;;4.80;99.90;;;;;;5074218;28;20506;-62
2023/02/02 00:21:40;;;;;;;;;;;4.80;99.90;;;;;;5074620;28;20430;-62
2023/02/02 00:24:07;;;;;;;27.33;4.35;;;4.80;99.90;;;;;;5074335;28;19969;-62
2023/02/02 00:26:34;;;;;;;27.80;5.40;;;4.80;99.90;;;;;;5074447;28;20424;-61
2023/02/02 00:28:59;;;;;;;27.52;4.07;;;4.80;99.90;;;;;;5069693;28;20036;-62
2023/02/02 00:31:25;;;;;;;23.35;3.55;;;4.80;99.90;;;;;;5064706;28;20051;-62
2023/02/02 00:33:50;;;;;;;25.63;3.67;;;4.90;99.90;;;;;;5074068;28;20045;-62
2023/02/02 00:36:17;;;;;;;27.67;4.03;;;4.90;99.90;;;;;;5074006;28;20055;-62
2023/02/02 00:38:43;;;;;;;32.13;5.22;;;5.00;99.90;;;;;;5073622;28;20102;-62
2023/02/02 00:41:09;;;;;;;25.02;3.75;;;5.00;99.90;;;;;;5074018;28;20131;-62
2023/02/02 00:43:34;;;;;;;24.25;3.78;;;5.00;99.90;;;;;;5074004;28;20044;-61
2023/02/02 00:46:00;;;;;;;31.67;5.45;;;4.90;99.90;;;;;;5073796;28;20036;-63
2023/02/02 00:48:26;;;;;;;24.80;4.25;;;5.00;99.90;;;;;;5073786;28;20083;-62
2023/02/02 00:50:52;;;;;;;32.85;4.78;;;5.00;99.90;;;;;;5073621;28;20072;-62
2023/02/02 00:53:18;;;;;;;30.88;4.25;;;5.00;99.90;;;;;;5073415;28;20084;-62
2023/02/02 00:55:44;;;;;;;32.08;4.85;;;5.20;99.90;;;;;;5073946;28;20106;-62
2023/02/02 00:58:10;;;;;;;30.38;4.80;;;5.10;99.90;;;;;;5074027;28;20474;-62
2023/02/02 01:00:36;;;;;;;34.78;4.38;;;5.10;99.90;;;;;;5073802;28;20513;-62
2023/02/02 01:03:03;;;;;;;37.05;5.15;;;5.10;99.90;;;;;;5074072;28;20036;-62
2023/02/02 01:05:30;;;;;;;27.67;4.47;;;5.10;99.90;;;;;;5073435;28;20093;-62
2023/02/02 01:07:56;;;;;;;24.92;4.97;;;5.20;99.90;;;;;;5073413;28;20147;-62
2023/02/02 01:10:22;;;;;;;29.30;4.50;;;5.50;99.90;;;;;;5073536;28;20423;-62
2023/02/02 01:12:47;;;;;;;35.58;4.85;;;5.20;99.90;;;;;;5073371;28;20395;-61
2023/02/02 01:15:13;;;;;;;31.95;4.60;;;5.30;99.90;;;;;;5073320;28;20037;-62
2023/02/02 01:17:39;;;;;;;36.22;5.30;;;5.30;99.90;;;;;;5073327;28;20032;-62
2023/02/02 01:20:05;;;;;;;31.50;4.25;;;5.20;99.90;;;;;;5060521;28;20434;-62
2023/02/02 01:22:32;;;;;;;27.73;4.13;;;5.30;99.90;;;;;;5072950;28;20054;-62
2023/02/02 01:24:58;;;;;;;29.73;4.43;;;5.30;99.90;;;;;;5059724;28;20044;-62
2023/02/02 01:27:24;;;;;;;40.17;5.18;;;5.30;99.90;;;;;;5072559;28;20041;-62
2023/02/02 01:29:50;;;;;;;31.40;5.45;;;5.40;99.90;;;;;;5073083;28;20051;-62
2023/02/02 01:32:15;;;;;;;32.78;5.47;;;5.50;99.90;;;;;;5063949;28;20032;-62
2023/02/02 01:34:42;;;;;;;36.88;5.30;;;5.40;99.90;;;;;;5072958;28;20102;-62
2023/02/02 01:37:09;;;;;;;26.23;5.55;;;5.40;99.90;;;;;;5071472;28;20044;-62
2023/02/02 01:39:34;;;;;;;29.98;4.00;;;5.60;99.90;;;;;;5071746;28;20055;-62
2023/02/02 01:42:01;;;;;;;39.22;5.63;;;5.60;99.90;;;;;;5072986;28;20479;-62
2023/02/02 01:45:01;;;;;;;25.42;4.22;;;5.50;99.90;;;;;;5071818;28;20044;-62
2023/02/02 01:47:32;;;;;;;32.20;4.65;;;5.50;99.90;;;;;;5054290;28;20048;-62
2023/02/02 01:49:58;;;;;;;30.17;4.45;;;5.50;99.90;;;;;;5072477;28;20562;-62
2023/02/02 01:52:28;;;;;;;25.80;4.60;;;5.50;99.90;;;;;;5072957;28;20076;-62
2023/02/02 01:54:59;;;;;;;29.83;4.00;;;5.50;99.90;;;;;;5072447;28;20044;-62
2023/02/02 01:57:37;;;;;;;30.00;3.53;;;5.50;99.90;;;;;;5072412;28;20040;-62
2023/02/02 02:00:08;;;;;;;35.97;4.45;;;5.60;99.90;;;;;;5072153;28;20123;-62
2023/02/02 02:02:35;;;;;;;30.55;4.90;;;5.50;99.90;;;;;;5072969;28;20599;-62
2023/02/02 02:05:03;;;;;;;30.35;3.90;;;5.50;99.90;;;;;;5072373;28;20450;-62
2023/02/02 02:07:29;;;;;;;22.35;5.63;;;5.40;99.90;;;;;;5065833;28;20048;-62
2023/02/02 02:09:54;;;;;;;33.97;4.43;;;5.50;99.90;;;;;;5064330;28;20053;-62
2023/02/02 02:12:20;;;;;;;25.00;4.13;;;5.50;99.90;;;;;;5072218;28;20035;-62
2023/02/02 02:17:56;;;;;;;29.48;4.78;;;5.40;99.90;;;;;;5072333;28;20044;-62
2023/02/02 02:27:15;;;;;;;29.73;5.00;;;5.60;99.90;;;;;;5072052;28;20115;-62
2023/02/02 02:30:02;;;;;;;27.88;4.43;;;5.50;99.90;;;;;;5039747;28;20040;-62
2023/02/02 02:32:51;;;;;;;21.90;4.35;;;5.60;99.90;;;;;;5068499;28;20044;-62
2023/02/02 02:35:27;;;;;;;30.35;3.85;;;5.50;99.90;;;;;;5071801;28;20043;-62
2023/02/02 02:38:10;;;;;;;37.13;4.93;;;5.60;99.90;;;;;;5071869;28;20036;-62
2023/02/02 02:40:41;;;;;;;28.13;4.68;;;5.70;99.90;;;;;;5070461;28;20106;-62
2023/02/02 02:43:27;;;;;;;35.45;4.65;;;5.70;99.90;;;;;;5071745;28;20059;-62
2023/02/02 02:45:53;;;;;;;25.90;4.93;;;5.70;99.90;;;;;;5071748;28;20060;-62
2023/02/02 02:48:19;;;;;;;28.20;4.78;;;5.80;99.90;;;;;;5072065;28;20055;-62
2023/02/02 02:50:45;;;;;;;29.23;4.70;;;5.70;99.90;;;;;;5071727;28;20040;-62
2023/02/02 02:53:16;;;;;;;22.00;3.85;;;5.80;99.90;;;;;;5067353;28;20461;-62
2023/02/02 02:56:05;;;;;;;31.40;4.35;;;5.80;99.90;;;;;;5062465;28;20067;-62
2023/02/02 02:58:40;;;;;;;30.63;4.13;;;5.90;99.90;;;;;;5057871;28;20032;-62
2023/02/02 03:01:13;;;;;;;37.95;4.80;;;5.80;99.90;;;;;;5070511;28;20036;-62
2023/02/02 03:04:09;;;;;;;24.35;3.95;;;5.80;99.90;;;;;;5071613;28;20055;-62
2023/02/02 03:06:59;;;;;;;26.50;4.35;;;5.70;99.90;;;;;;5071405;28;20406;-62
2023/02/02 03:09:31;;;;;;;30.63;3.88;;;5.90;99.90;;;;;;5070481;28;20146;-62
2023/02/02 03:11:58;;;;;;;41.40;4.60;;;5.90;99.90;;;;;;5071541;28;20044;-63
2023/02/02 03:14:24;;;;;;;24.73;3.80;;;5.90;99.90;;;;;;5071526;28;20043;-62
2023/02/02 03:16:51;;;;;;;27.67;4.47;;;5.90;99.90;;;;;;5071555;28;20454;-62
2023/02/02 03:19:17;;;;;;;35.20;5.25;;;6.10;99.90;;;;;;5071496;28;20079;-62
2023/02/02 03:21:43;;;;;;;25.52;4.18;;;6.20;99.90;;;;;;5071316;28;20072;-63
2023/02/02 03:24:08;;;;;;;36.53;4.70;;;6.10;99.90;;;;;;5071298;28;20040;-62
2023/02/02 03:26:34;;;;;;;24.35;3.88;;;6.30;99.90;;;;;;5071728;28;20044;-62
2023/02/02 03:29:00;;;;;;;26.90;4.97;;;6.10;99.90;;;;;;5071539;28;20719;-62
2023/02/02 03:31:28;;;;;;;32.00;4.10;;;6.30;99.90;;;;;;5071276;28;20510;-62
2023/02/02 03:33:54;;;;;;;26.58;3.90;;;6.30;99.90;;;;;;5071451;28;20048;-62
2023/02/02 03:36:20;;;;;;;23.55;4.13;;;6.30;99.90;;;;;;5071502;28;20098;-62
2023/02/02 03:38:45;;;;;;;26.77;3.10;;;6.40;99.90;;;;;;5071385;28;20475;-62
2023/02/02 03:41:11;;;;;;;25.45;4.15;;;6.40;99.90;;;;;;5071091;28;20047;-62
2023/02/02 03:43:36;;;;;;;22.65;3.95;;;6.30;99.90;;;;;;5071274;28;20032;-62
2023/02/02 03:46:04;;;;;;;19.55;2.97;;;6.30;99.90;;;;;;5071329;28;20044;-62
2023/02/02 03:48:31;;;;;;;18.73;3.00;;;6.40;99.90;;;;;;5074611;28;20047;-62
2023/02/02 03:50:57;;;;;;;19.90;2.38;;;6.40;99.90;;;;;;5075155;28;20037;-62
2023/02/02 03:53:23;;;;;;;19.48;2.55;;;6.30;99.90;;;;;;5074661;28;20049;-62
2023/02/02 03:55:48;;;;;;;10.18;1.80;;;6.30;99.90;;;;;;5074933;28;20171;-62
2023/02/02 03:58:14;;;;;;;11.00;1.73;;;6.30;99.90;;;;;;5074685;28;20119;-62
2023/02/02 04:00:40;;;;;;;12.48;2.90;;;6.30;99.90;;;;;;5074770;28;20043;-62
2023/02/02 04:03:05;;;;;;;12.35;2.10;;;6.30;99.90;;;;;;5074455;28;20493;-63
2023/02/02 04:05:31;;;;;;;8.15;1.35;;;6.20;99.90;;;;;;5074751;28;20036;-63
2023/02/02 04:07:57;;;;;;;4.93;1.30;;;6.30;99.90;;;;;;5060909;28;20037;-62
2023/02/02 04:10:23;;;;;;;4.20;1.42;;;6.20;99.90;;;;;;5074216;28;20426;-63
2023/02/02 04:12:48;;;;;;;6.28;0.70;;;6.40;99.90;;;;;;5074433;28;20052;-62
2023/02/02 04:15:14;;;;;;;6.47;0.93;;;6.20;99.90;;;;;;5074391;28;20063;-63
2023/02/02 04:17:39;;;;;;;2.45;0.70;;;6.10;99.90;;;;;;5074864;28;20047;-62
2023/02/02 04:20:06;;;;;;;5.13;0.57;;;6.10;99.90;;;;;;5074067;28;20505;-62
2023/02/02 04:22:32;;;;;;;3.45;0.90;;;6.00;99.90;;;;;;5074395;28;20033;-62
2023/02/02 04:24:58;;;;;;;5.90;1.27;;;6.00;99.90;;;;;;5074191;28;20046;-62
2023/02/02 04:27:23;;;;;;;3.60;0.68;;;6.00;99.90;;;;;;5074194;28;20040;-62
2023/02/02 04:29:49;;;;;;;6.80;1.05;;;6.00;99.90;;;;;;5074034;28;20376;-62
2023/02/02 04:32:15;;;;;;;10.02;1.55;;;6.00;99.90;;;;;;5074084;28;20029;-62
2023/02/02 04:34:42;;;;;;;7.95;1.30;;;6.00;99.90;;;;;;5074313;28;20068;-62
2023/02/02 04:37:08;;;;;;;7.38;1.02;;;5.90;99.90;;;;;;5073871;28;20032;-62
2023/02/02 04:39:33;;;;;;;7.35;1.38;;;5.90;99.90;;;;;;5073888;28;20455;-62
2023/02/02 04:41:59;;;;;;;7.85;1.42;;;6.00;99.90;;;;;;5074060;28;20072;-62
2023/02/02 04:44:25;;;;;;;11.18;1.42;;;6.00;99.90;;;;;;5073770;28;20040;-62
2023/02/02 04:46:50;;;;;;;6.03;1.40;;;6.00;99.90;;;;;;5074047;28;20094;-62
2023/02/02 04:49:16;;;;;;;6.70;1.42;;;6.00;99.90;;;;;;5072876;28;20052;-62
2023/02/02 04:51:42;;;;;;;9.95;2.33;;;5.90;99.90;;;;;;5073980;28;20056;-62
2023/02/02 04:54:08;;;;;;;8.48;1.10;;;5.90;99.90;;;;;;5073931;28;20040;-62
2023/02/02 04:56:34;;;;;;;9.43;1.40;;;5.80;99.90;;;;;;5073568;28;20031;-62
2023/02/02 04:59:00;;;;;;;7.53;1.20;;;5.80;99.90;;;;;;5073245;28;20052;-62
2023/02/02 05:01:26;;;;;;;8.75;2.08;;;5.80;99.90;;;;;;5073831;28;20394;-62
2023/02/02 05:03:52;;;;;;;6.50;1.13;;;5.80;99.90;;;;;;5074102;28;20096;-62
2023/02/02 05:06:18;;;;;;;7.63;1.40;;;5.80;99.90;;;;;;5073780;28;20044;-62
2023/02/02 05:08:46;;;;;;;7.65;1.30;;;5.70;99.90;;;;;;5059483;28;20040;-62
2023/02/02 05:11:19;;;;;;;8.23;1.87;;;5.80;99.90;;;;;;5073691;28;20037;-62
2023/02/02 05:13:46;;;;;;;4.88;1.00;;;5.70;99.90;;;;;;5073099;28;20032;-62
2023/02/02 05:16:12;;;;;;;9.38;1.48;;;5.70;99.90;;;;;;5061826;28;20037;-62
2023/02/02 05:18:37;;;;;;;5.93;1.02;;;5.70;99.90;;;;;;5071192;28;20058;-62
2023/02/02 05:21:03;;;;;;;8.30;1.67;;;5.70;99.90;;;;;;5073464;28;20041;-62
2023/02/02 05:23:29;;;;;;;6.05;1.58;;;5.70;99.90;;;;;;5073311;28;20070;-62
2023/02/02 05:25:56;;;;;;;6.40;1.13;;;5.70;99.90;;;;;;5073418;28;20036;-62
2023/02/02 05:28:22;;;;;;;11.00;1.00;;;5.70;99.90;;;;;;5073549;28;20044;-62
2023/02/02 05:30:48;;;;;;;7.65;1.38;;;5.80;99.90;;;;;;5058017;28;20043;-62
2023/02/02 05:33:14;;;;;;;9.38;1.20;;;5.70;99.90;;;;;;5073352;28;20032;-63
2023/02/02 05:35:39;;;;;;;7.60;1.02;;;5.70;99.90;;;;;;5072926;28;20433;-62
2023/02/02 05:38:05;;;;;;;4.72;1.20;;;5.70;99.90;;;;;;5072838;28;20033;-62
2023/02/02 05:40:31;;;;;;;7.53;1.70;;;5.60;99.90;;;;;;5072684;28;20044;-61
2023/02/02 05:42:56;;;;;;;5.57;1.10;;;5.60;99.90;;;;;;5055450;28;20072;-62
2023/02/02 05:45:22;;;;;;;7.47;1.17;;;5.70;99.90;;;;;;5072900;28;20513;-61
2023/02/02 05:47:48;;;;;;;9.30;1.25;;;5.70;99.90;;;;;;5072638;28;20036;-62
2023/02/02 05:50:14;;;;;;;7.07;1.30;;;5.60;99.90;;;;;;5072544;28;20048;-62
2023/02/02 05:52:42;;;;;;;5.20;1.13;;;5.60;99.90;;;;;;5088119;28;20052;-62
2023/02/02 05:55:09;;;;;;;6.20;1.92;;;5.70;99.90;;;;;;5054789;28;20135;-61
2023/02/02 05:57:35;;;;;;;9.27;2.10;;;5.60;99.90;;;;;;5072749;28;20036;-62
2023/02/02 06:00:01;;;;;;;4.40;1.85;;;5.70;99.90;;;;;;5072496;28;20047;-62
2023/02/02 06:02:26;;;;;;;8.63;1.30;;;5.70;99.90;;;;;;5072539;28;20044;-62
2023/02/02 06:04:52;;;;;;;8.55;1.00;;;5.60;99.90;;;;;;5072377;28;20093;-62
2023/02/02 06:07:18;;;;;;;5.82;1.13;;;5.60;99.90;;;;;;5066744;28;20032;-62
2023/02/02 06:09:43;;;;;;;8.02;1.00;;;5.60;99.90;;;;;;5050801;28;20037;-62
2023/02/02 06:12:09;;;;;;;5.40;1.75;;;5.60;99.90;;;;;;5060265;28;20102;-61
2023/02/02 06:14:34;;;;;;;7.38;1.02;;;5.60;99.90;;;;;;5072596;28;20055;-62
2023/02/02 06:17:00;;;;;;;7.75;1.65;;;5.70;99.90;;;;;;5072454;28;20564;-62
2023/02/02 06:19:26;;;;;;;8.98;1.20;;;5.70;99.90;;;;;;5070933;28;20113;-62
2023/02/02 06:21:51;;;;;;;8.98;2.03;;;5.60;99.90;;;;;;5071923;28;20428;-62
2023/02/02 06:24:17;;;;;;;9.18;1.40;;;5.60;99.90;;;;;;5064106;28;20041;-62
2023/02/02 06:26:43;;;;;;;8.88;1.33;;;5.70;99.90;;;;;;5051702;28;20399;-62
2023/02/02 06:29:12;;;;;;;7.82;1.60;;;5.70;99.90;;;;;;5071069;28;20410;-62
2023/02/02 06:31:38;;;;;;;12.35;1.90;;;5.80;99.90;;;;;;5072261;28;20178;-62
2023/02/02 06:34:04;;;;;;;6.28;1.75;;;5.70;99.90;;;;;;5071851;28;20028;-62
2023/02/02 06:36:30;;;;;;;10.75;1.50;;;5.70;99.90;;;;;;5071815;28;20474;-62
2023/02/02 06:38:56;;;;;;;8.43;1.60;;;5.80;99.90;;;;;;5070979;28;20044;-62
2023/02/02 06:41:23;;;;;;;7.72;1.50;;;5.70;99.90;;;;;;5072045;28;20036;-62
2023/02/02 06:43:49;;;;;;;11.68;1.90;;;5.70;99.90;;;;;;5071813;28;20043;-62
2023/02/02 06:46:15;;;;;;;10.90;1.83;;;5.80;99.90;;;;;;5068857;28;20040;-62
2023/02/02 06:48:41;;;;;;;6.40;2.10;;;5.70;99.90;;;;;;5071552;28;20127;-62
2023/02/02 06:51:07;;;;;;;7.03;1.55;;;5.70;99.90;;;;;;5071551;28;20178;-61
2023/02/02 06:53:34;;;;;;;8.05;1.25;;;5.70;99.90;;;;;;5071784;28;20485;-62
2023/02/02 06:56:01;;;;;;;7.40;1.73;;;5.80;99.90;;;;;;5065818;28;20509;-62
2023/02/02 06:58:29;;;;;;;7.10;1.70;;;5.80;99.90;;;;;;5071014;28;20605;-62
2023/02/02 07:00:54;;;;;;;10.02;1.73;;;5.80;99.90;;;;;;5071927;28;20133;-62
2023/02/02 07:03:21;;;;;;;3.67;1.25;;;5.70;99.90;;;;;;5071724;28;20067;-62
2023/02/02 07:05:48;;;;;;;10.45;1.73;;;5.70;99.90;;;;;;5071620;28;20047;-62
2023/02/02 07:08:14;;;;;;;4.95;1.55;;;5.70;99.90;;;;;;5071244;28;20067;-62
2023/02/02 07:10:41;;;;;;;9.95;1.33;;;5.70;99.90;;;;;;5071580;28;20040;-62
2023/02/02 07:13:07;;;;;;;5.05;1.17;;;5.60;99.90;;;;;;5071566;28;20043;-61
2023/02/02 07:15:33;;;;;;;4.55;1.20;;;5.70;99.90;;;;;;5071658;28;20032;-62
2023/02/02 07:17:59;;;;;;;5.55;1.33;;;5.70;99.90;;;;;;5071639;28;20052;-62
2023/02/02 07:20:26;;;;;;;12.32;1.85;;;5.70;99.90;;;;;;5070098;28;20429;-62
2023/02/02 07:22:51;;;;;;;6.50;1.58;;;5.60;99.90;;;;;;5075820;28;20087;-62
2023/02/02 07:25:17;;;;;;;6.07;1.27;;;5.60;99.90;;;;;;5075531;28;20067;-62
2023/02/02 07:27:43;;;;;;;4.45;1.55;;;5.70;99.90;;;;;;5074752;28;20052;-62
2023/02/02 07:30:09;;;;;;;11.20;2.15;;;5.60;99.90;;;;;;5074019;28;20043;-62
2023/02/02 07:32:35;;;;;;;6.70;1.63;;;5.70;99.90;;;;;;5074001;28;20071;-62
2023/02/02 07:35:01;;;;;;;6.95;1.20;;;5.60;99.90;;;;;;5075282;28;20075;-62
2023/02/02 07:37:26;;;;;;;8.32;1.70;;;5.80;99.90;;;;;;5075021;28;20389;-62
2023/02/02 07:39:52;;;;;;;8.73;1.52;;;5.70;99.90;;;;;;5075339;28;20453;-62
2023/02/02 07:42:18;;;;;;;7.80;1.52;;;5.70;99.90;;;;;;5075077;28;20478;-62
2023/02/02 07:44:43;;;;;;;6.50;1.65;;;5.80;99.90;;;;;;5074919;28;20040;-62
2023/02/02 07:47:09;;;;;;;10.05;1.50;;;5.60;99.90;;;;;;5075220;28;20072;-62
2023/02/02 07:49:35;;;;;;;7.15;2.28;;;5.70;99.90;;;;;;5074978;28;20378;-62
2023/02/02 07:52:00;;;;;;;6.43;2.30;;;5.60;99.90;;;;;;5074722;28;20574;-62
2023/02/02 07:54:26;;;;;;;6.07;1.63;;;5.70;99.90;;;;;;5074726;28;20040;-61
2023/02/02 07:56:52;;;;;;;5.00;1.75;;;5.60;99.90;;;;;;5056927;28;20036;-61
2023/02/02 07:59:17;;;;;;;8.38;2.08;;;5.80;99.90;;;;;;5074886;28;20044;-62
2023/02/02 08:01:43;;;;;;;6.05;1.67;;;5.90;99.90;;;;;;5074431;28;20040;-62
2023/02/02 08:04:09;;;;;;;8.05;1.60;;;5.80;99.90;;;;;;5074683;28;20037;-62
2023/02/02 08:06:36;;;;;;;8.73;2.20;;;5.70;99.90;;;;;;5074692;28;20052;-61
2023/02/02 08:09:04;;;;;;;10.70;1.60;;;5.60;99.90;;;;;;5074718;28;20047;-62
2023/02/02 08:11:30;;;;;;;5.10;1.83;;;5.70;99.90;;;;;;5074568;28;20470;-59
2023/02/02 08:13:58;;;;;;;5.95;1.77;;;5.70;99.90;;;;;;5073351;28;20048;-59
2023/02/02 08:16:25;;;;;;;6.40;1.50;;;5.80;99.90;;;;;;5074420;28;20040;-59
2023/02/02 08:18:51;;;;;;;3.35;1.20;;;5.70;99.90;;;;;;5074394;28;20036;-59
2023/02/02 08:21:17;;;;;;;8.20;1.85;;;5.70;99.90;;;;;;5072714;28;20173;-59
2023/02/02 08:23:44;;;;;;;4.63;1.35;;;5.70;99.90;;;;;;5071845;28;20032;-59
2023/02/02 08:26:23;;;;;;;9.35;1.50;;;5.80;99.90;;;;;;5074560;28;20040;-59
2023/02/02 08:29:06;;;;;;;7.38;1.50;;;5.80;99.90;;;;;;5072891;28;20056;-59
2023/02/02 08:31:35;;;;;;;5.75;1.52;;;5.90;99.90;;;;;;5074218;28;20052;-59
2023/02/02 08:34:01;;;;;;;;;;;5.80;99.90;;;;;;5073604;28;20303;-59
2023/02/02 08:36:28;;;;;;;4.90;1.17;;;5.80;99.90;;;;;;5074410;28;19920;-59
2023/02/02 08:38:54;;;;;;;5.05;1.55;;;5.80;99.90;;;;;;5065172;28;20084;-60
2023/02/02 08:41:22;;;;;;;4.10;1.40;;;6.00;99.90;;;;;;5054419;28;20064;-60
2023/02/02 08:43:48;;;;;;;3.55;1.50;;;5.90;99.90;;;;;;5054413;28;20037;-59
2023/02/02 08:46:16;;;;;;;5.70;1.50;;;5.90;99.90;;;;;;5069820;28;20059;-59
2023/02/02 08:48:42;;;;;;;6.93;1.58;;;5.80;99.90;;;;;;5074078;28;20045;-59
2023/02/02 08:51:11;;;;;;;4.70;1.60;;;6.00;99.90;;;;;;5073885;28;20119;-59
2023/02/02 08:53:37;;;;;;;6.93;1.60;;;5.90;99.90;;;;;;5073556;28;20059;-59
2023/02/02 08:56:12;;;;;;;9.32;1.67;;;5.90;99.90;;;;;;5073750;28;20399;-60
2023/02/02 08:58:38;;;;;;;5.65;1.50;;;6.10;99.90;;;;;;5073611;28;20036;-60
2023/02/02 09:01:14;;;;;;;6.95;2.25;;;5.90;99.90;;;;;;5073807;28;20046;-59
2023/02/02 09:03:40;;;;;;;11.32;2.17;;;6.00;99.90;;;;;;5068330;28;20041;-59
2023/02/02 09:06:17;;;;;;;6.10;2.20;;;6.00;99.90;;;;;;5064928;28;20052;-59
2023/02/02 09:08:43;;;;;;;9.20;1.55;;;6.30;99.90;;;;;;5054669;28;20082;-59
2023/02/02 09:11:17;;;;;;;2.67;1.38;;;6.30;99.90;;;;;;5064304;28;20028;-59
2023/02/02 09:13:45;;;;;;;3.90;1.30;;;6.30;99.90;;;;;;5073136;28;20471;-59
2023/02/02 09:16:12;;;;;;;4.70;1.33;;;6.20;99.90;;;;;;5063107;28;20069;-60
2023/02/02 09:18:39;;;;;;;3.17;1.30;;;6.20;99.90;;;;;;5068724;28;20036;-59
2023/02/02 09:21:08;;;;;;;5.22;1.10;;;6.30;99.90;;;;;;5073194;28;20081;-59
2023/02/02 09:23:36;;;;;;;6.45;1.67;;;6.40;99.90;;;;;;5073287;28;20105;-60
2023/02/02 09:26:28;;;;;;;4.88;1.30;;;6.40;99.90;;;;;;5073304;28;20483;-60
2023/02/02 09:29:01;;;;;;;3.65;1.20;;;6.50;99.90;;;;;;5071803;28;20045;-60
2023/02/02 09:31:28;;;;;;;7.10;1.70;;;6.70;99.90;;;;;;5073165;28;20044;-60
2023/02/02 09:33:54;;;;;;;4.75;1.33;;;6.60;99.90;;;;;;5072822;28;20436;-59
2023/02/02 09:36:22;;;;;;;4.10;1.10;;;6.60;99.90;;;;;;5072984;28;20135;-60
2023/02/02 09:38:49;;;;;;;5.07;1.20;;;6.50;99.90;;;;;;5067915;28;20128;-59
2023/02/02 09:41:36;;;;;;;7.20;1.17;;;6.70;99.90;;;;;;5054950;28;20116;-59
2023/02/02 09:44:10;;;;;;;3.95;1.30;;;6.70;99.90;;;;;;5054439;28;20398;-59
2023/02/02 09:46:57;;;;;;;7.28;1.45;;;6.80;99.90;;;;;;5072397;28;20048;-60
2023/02/02 09:49:38;;;;;;;3.40;1.33;;;6.70;99.90;;;;;;5059946;28;20382;-59
2023/02/02 09:52:17;;;;;;;4.50;1.38;;;6.70;99.90;;;;;;5072529;28;20410;-59
2023/02/02 09:54:45;;;;;;;3.10;1.35;;;6.80;99.90;;;;;;5072699;28;20466;-59
2023/02/02 09:57:22;;;;;;;8.23;1.35;;;6.80;99.90;;;;;;5072822;28;20071;-59
2023/02/02 09:59:51;;;;;;;5.45;1.35;;;6.90;99.90;;;;;;5072741;28;20045;-62
2023/02/02 10:02:22;;;;;;;8.48;0.90;;;6.80;99.90;;;;;;5072780;28;20383;-62
2023/02/02 10:04:53;;;;;;;11.32;2.00;;;6.90;99.90;;;;;;5044567;28;20052;-62
2023/02/02 10:07:29;;;;;;;5.25;1.35;;;7.00;99.90;;;;;;5059760;28;20055;-62
2023/02/02 10:09:59;;;;;;;8.57;1.38;;;6.90;99.90;;;;;;5050495;28;20079;-62
2023/02/02 10:12:30;;;;;;;3.70;1.70;;;7.00;99.90;;;;;;5072459;28;20036;-62
2023/02/02 10:14:59;;;;;;;9.82;2.05;;;7.00;99.90;;;;;;5071974;28;20479;-62
2023/02/02 10:17:40;;;;;;;6.70;1.05;;;7.10;99.90;;;;;;5072000;28;20052;-62
2023/02/02 10:20:44;;;;;;;8.68;2.03;;;7.10;99.90;;;;;;5072328;28;20433;-62
2023/02/02 10:23:30;;;;;;;8.15;1.48;;;7.10;99.90;;;;;;5071954;28;20116;-62
2023/02/02 10:26:03;;;;;;;6.85;1.40;;;7.20;99.90;;;;;;5072323;28;20045;-61
2023/02/02 10:28:41;;;;;;;5.72;1.30;;;7.30;99.90;;;;;;5071941;28;20042;-62
2023/02/02 10:31:16;;;;;;;4.30;1.30;;;7.20;99.90;;;;;;5072489;28;20500;-62
2023/02/02 10:33:50;;;;;;;9.35;1.85;;;7.40;99.90;;;;;;5072047;28;20075;-62
2023/02/02 10:36:31;;;;;;;6.20;1.10;;;7.30;99.90;;;;;;5071726;28;20459;-62
2023/02/02 10:39:02;;;;;;;6.82;1.60;;;7.30;99.90;;;;;;5071679;28;20044;-62
2023/02/02 10:41:37;;;;;;;8.70;1.48;;;7.30;99.90;;;;;;5058260;28;20032;-62
2023/02/02 10:44:27;;;;;;;6.38;1.50;;;7.40;99.90;;;;;;5072064;28;20043;-62
2023/02/02 10:46:54;;;;;;;5.50;1.25;;;7.30;99.90;;;;;;5071865;28;20056;-62
2023/02/02 10:49:28;;;;;;;7.30;1.50;;;7.30;99.90;;;;;;5071796;28;20501;-61
2023/02/02 10:51:56;;;;;;;3.50;1.33;;;7.40;99.90;;;;;;5071631;28;20406;-62
2023/02/02 10:54:49;;;;;;;8.43;1.50;;;7.40;99.90;;;;;;5071581;28;20040;-62
2023/02/02 10:57:24;;;;;;;7.65;1.40;;;7.30;99.90;;;;;;5045901;28;20525;-62
2023/02/02 11:00:22;;;;;;;5.55;1.40;;;7.30;99.90;;;;;;5070524;28;20491;-61
2023/02/02 11:02:49;;;;;;;6.13;1.52;;;7.30;99.90;;;;;;5056991;28;20455;-62
2023/02/02 11:08:31;;;;;;;6.18;1.65;;;7.30;99.90;;;;;;5071263;28;20049;-62
2023/02/02 11:11:15;;;;;;;7.38;1.70;;;7.40;99.90;;;;;;5029432;28;20061;-62
2023/02/02 11:14:08;;;;;;;6.07;1.67;;;7.30;99.90;;;;;;5028672;28;20046;-62
2023/02/02 11:16:41;;;;;;;5.72;2.05;;;7.30;99.90;;;;;;4984611;28;20506;-62
2023/02/02 11:19:28;;;;;;;7.53;1.60;;;7.30;99.90;;;;;;4982694;28;20077;-62
2023/02/02 11:21:57;;;;;;;9.68;2.05;;;7.40;99.90;;;;;;4986338;28;20077;-62
2023/02/02 11:24:27;;;;;;;5.82;1.80;;;7.30;99.90;;;;;;4989967;28;20042;-62
2023/02/02 11:26:57;;;;;;;8.25;1.77;;;7.30;99.90;;;;;;4989863;28;20531;-62
2023/02/02 11:29:32;;;;;;;8.32;2.05;;;7.30;99.90;;;;;;4973544;28;20059;-62
2023/02/02 11:32:16;;;;;;;8.88;2.17;;;7.20;99.90;;;;;;4989995;28;20049;-63
2023/02/02 11:34:41;;;;;;;10.27;1.98;;;7.30;99.90;;;;;;4989728;28;20051;-62
2023/02/02 11:37:20;;;;;;;6.05;1.90;;;7.30;99.90;;;;;;4989731;28;20112;-62
2023/02/02 11:39:46;;;;;;;6.45;1.90;;;7.30;99.90;;;;;;4987712;28;20065;-62
2023/02/02 11:42:21;;;;;;;7.28;1.98;;;7.30;99.90;;;;;;4989840;28;20054;-62
2023/02/02 11:44:55;;;;;;;5.82;1.50;;;7.30;99.90;;;;;;4989793;28;20101;-62
2023/02/02 11:47:26;;;;;;;6.95;1.50;;;7.30;99.90;;;;;;4995195;28;20232;-63
2023/02/02 11:49:54;;;;;;;5.97;1.90;;;7.40;99.90;;;;;;5009336;28;20046;-62
2023/02/02 11:52:24;;;;;;;6.25;2.15;;;7.40;99.90;;;;;;5009457;28;20081;-63
2023/02/02 11:55:07;;;;;;;7.35;2.28;;;7.40;99.90;;;;;;5070418;28;20551;-62
2023/02/02 11:57:33;;;;;;;5.03;1.55;;;7.40;99.90;;;;;;5071367;28;20554;-62
2023/02/02 12:00:16;;;;;;;6.43;2.10;;;7.30;99.90;;;;;;5070859;28;20037;-62
2023/02/02 12:02:46;;;;;;;3.97;1.30;;;7.40;99.90;;;;;;5071184;28;20463;-62
2023/02/02 12:05:22;;;;;;;6.07;2.00;;;7.40;99.90;;;;;;5071142;28;20032;-62
2023/02/02 12:07:48;;;;;;;7.78;1.80;;;7.40;99.90;;;;;;5071528;28;20040;-62
2023/02/02 12:10:17;;;;;;;7.90;2.10;;;7.40;99.90;;;;;;5074233;28;20033;-62
2023/02/02 12:12:48;;;;;;;12.27;2.42;;;7.40;99.90;;;;;;5074470;28;20054;-62
2023/02/02 12:15:28;;;;;;;10.15;2.30;;;7.40;99.90;;;;;;5060225;28;20534;-62
2023/02/02 12:18:20;;;;;;;10.02;2.08;;;7.40;99.90;;;;;;5074393;28;20036;-63
2023/02/02 12:20:55;;;;;;;5.28;1.65;;;7.40;99.90;;;;;;5048399;28;20541;-62
2023/02/02 12:23:40;;;;;;;8.68;2.92;;;7.50;99.90;;;;;;5074264;28;20040;-62
2023/02/02 12:26:26;;;;;;;9.10;1.65;;;7.40;99.90;;;;;;5065280;28;20033;-62
2023/02/02 12:29:21;;;;;;;5.97;1.83;;;7.50;99.90;;;;;;5071855;28;20044;-63
2023/02/02 12:32:08;;;;;;;6.60;1.40;;;7.40;99.90;;;;;;5057651;28;20048;-62
2023/02/02 12:34:52;;;;;;;8.20;1.80;;;7.40;99.90;;;;;;5047009;28;20040;-63
2023/02/02 12:37:58;;;;;;;10.02;2.05;;;7.40;99.90;;;;;;5073744;28;20493;-62
2023/02/02 12:40:50;;;;;;;5.80;0.80;;;7.50;99.90;;;;;;5072775;28;20052;-62
2023/02/02 12:43:30;;;;;;;8.45;1.38;;;7.40;99.90;;;;;;5073923;28;20395;-62
2023/02/02 12:46:16;;;;;;;4.20;1.60;;;7.40;99.90;;;;;;5073741;28;20387;-62
2023/02/02 12:48:55;;;;;;;9.05;1.70;;;7.50;99.90;;;;;;5074181;28;20053;-62
2023/02/02 12:51:38;;;;;;;4.53;1.13;;;7.50;99.90;;;;;;5073466;28;20037;-62
2023/02/02 12:54:12;;;;;;;5.05;1.65;;;7.50;99.90;;;;;;5073775;28;20080;-61
2023/02/02 12:56:53;;;;;;;10.05;1.77;;;7.50;99.90;;;;;;5073631;28;20040;-63
2023/02/02 12:59:24;;;;;;;3.05;1.10;;;7.50;99.90;;;;;;5073797;28;20372;-62
2023/02/02 13:02:20;;;;;;;4.75;1.20;;;7.40;99.90;;;;;;5073417;28;20462;-62
2023/02/02 13:05:06;;;;;;;6.80;1.77;;;7.40;99.90;;;;;;5073812;28;20377;-63
2023/02/02 13:07:50;;;;;;;8.68;1.33;;;7.40;99.90;;;;;;5073621;28;20041;-63
2023/02/02 13:10:27;;;;;;;7.15;2.20;;;7.40;99.90;;;;;;5073186;28;20547;-62
2023/02/02 13:13:13;;;;;;;7.07;1.70;;;7.40;99.90;;;;;;5073366;28;20037;-62
2023/02/02 13:15:43;;;;;;;7.53;1.90;;;7.40;99.90;;;;;;5047312;28;20098;-62
2023/02/02 13:18:33;;;;;;;8.23;2.60;;;7.40;99.90;;;;;;5073272;28;20560;-62
2023/02/02 13:21:06;;;;;;;7.15;1.55;;;7.40;99.90;;;;;;5047392;28;20037;-62
2023/02/02 13:23:42;;;;;;;6.43;1.73;;;7.40;99.90;;;;;;5069311;28;20428;-62